Time;durP1;ratioP1;P1;durP2;ratioP2;P2;SDS_P1;SDS_P2;PMS_P1;PMS_P2;Temp;Humidity;BMP_temperature;BMP_pressure;BME280_temperature;BME280_humidity;BME280_pressure;Samples;Min_cycle;Max_cycle;Signal;HPM_P1;HPM_P2
2023/05/02 00:01:18;;;;;;;;;15.00;12.00;23.00;38.60;;;;;;110052;1252;49626;-66
2023/05/02 00:03:45;;;;;;;;;12.00;11.00;22.90;38.70;;;;;;109983;1257;45922;-67
2023/05/02 00:06:12;;;;;;;;;18.00;16.00;23.00;38.60;;;;;;110348;1254;56332;-67
2023/05/02 00:08:39;;;;;;;;;14.00;12.00;22.90;38.50;;;;;;109964;1254;54659;-67
2023/05/02 00:11:06;;;;;;;;;11.00;10.00;23.00;38.50;;;;;;110075;1256;49072;-67
2023/05/02 00:13:33;;;;;;;;;12.00;11.00;22.90;38.50;;;;;;110060;1257;49239;-67
2023/05/02 00:16:01;;;;;;;;;13.00;12.00;22.90;38.50;;;;;;110306;1258;47047;-66
2023/05/02 00:18:28;;;;;;;;;14.00;13.00;22.90;38.50;;;;;;109914;1257;57096;-66
2023/05/02 00:20:55;;;;;;;;;13.50;10.00;22.90;38.50;;;;;;109894;1253;54221;-65
2023/05/02 00:23:22;;;;;;;;;14.00;13.00;22.90;38.70;;;;;;109866;1257;49725;-66
2023/05/02 00:25:49;;;;;;;;;13.00;12.00;22.90;39.00;;;;;;110000;1255;49309;-66
2023/05/02 00:28:17;;;;;;;;;18.00;14.00;22.90;38.60;;;;;;109934;1252;46397;-66
2023/05/02 00:30:45;;;;;;;;;15.00;12.00;22.80;38.50;;;;;;109944;1252;57275;-68
2023/05/02 00:33:13;;;;;;;;;13.00;11.50;22.80;38.50;;;;;;109851;1256;54913;-66
2023/05/02 00:35:40;;;;;;;;;14.00;13.00;22.80;38.50;;;;;;110029;1252;50302;-66
2023/05/02 00:38:07;;;;;;;;;16.00;14.00;22.80;38.50;;;;;;109941;1257;49336;-66
2023/05/02 00:40:50;;;;;;;;;16.00;13.00;22.80;38.50;;;;;;109905;1252;46172;-67
2023/05/02 00:43:17;;;;;;;;;13.50;11.00;22.80;38.50;;;;;;109924;1252;56796;-67
2023/05/02 00:45:45;;;;;;;;;17.00;14.00;22.80;38.50;;;;;;109946;1252;54829;-66
2023/05/02 00:48:12;;;;;;;;;15.00;14.00;22.70;38.50;;;;;;109925;1256;49861;-67
2023/05/02 00:50:41;;;;;;;;;16.00;12.00;22.70;38.40;;;;;;109929;1253;50816;-67
2023/05/02 00:53:09;;;;;;;;;13.00;12.00;22.70;38.40;;;;;;110044;1257;47515;-65
2023/05/02 00:55:37;;;;;;;;;13.50;12.00;22.70;38.50;;;;;;109958;1252;57128;-66
2023/05/02 00:58:07;;;;;;;;;14.00;13.00;22.70;38.50;;;;;;109863;1252;53905;-66
2023/05/02 01:00:42;;;;;;;;;12.00;11.00;22.70;38.40;;;;;;110038;1257;50530;-66
2023/05/02 01:03:26;;;;;;;;;16.00;15.00;22.70;38.40;;;;;;110019;1257;49674;-66
2023/05/02 01:06:10;;;;;;;;;11.00;10.00;22.70;38.60;;;;;;110369;1257;46377;-67
2023/05/02 01:08:49;;;;;;;;;15.50;14.00;22.70;38.70;;;;;;109976;1257;57635;-65
2023/05/02 01:11:34;;;;;;;;;14.50;13.50;22.70;38.30;;;;;;109938;1257;54053;-65
2023/05/02 01:14:04;;;;;;;;;17.00;13.00;22.70;38.30;;;;;;109912;1252;49713;-66
2023/05/02 01:16:33;;;;;;;;;15.00;14.00;22.70;38.50;;;;;;109916;1257;50823;-65
2023/05/02 01:19:01;;;;;;;;;14.50;13.00;22.70;38.30;;;;;;109890;1257;46350;-68
2023/05/02 01:21:28;;;;;;;;;15.00;13.25;22.70;38.30;;;;;;109769;1254;56274;-67
2023/05/02 01:24:05;;;;;;;;;16.00;14.00;22.60;38.30;;;;;;109647;1257;54766;-67
2023/05/02 01:26:58;;;;;;;;;14.00;13.00;22.60;38.30;;;;;;109947;1255;50537;-68
2023/05/02 01:29:26;;;;;;;;;16.50;15.00;22.50;38.30;;;;;;109865;1258;49608;-66
2023/05/02 01:31:55;;;;;;;;;17.33;15.67;22.60;38.40;;;;;;109980;1252;46939;-66
2023/05/02 01:34:23;;;;;;;;;15.00;13.00;22.50;38.30;;;;;;109981;1252;56439;-66
2023/05/02 01:36:51;;;;;;;;;15.00;12.00;22.50;38.30;;;;;;109811;1257;54393;-65
2023/05/02 01:39:20;;;;;;;;;16.33;15.00;22.50;38.80;;;;;;109854;1254;51476;-67
2023/05/02 01:41:50;;;;;;;;;14.33;13.33;22.50;38.30;;;;;;109987;1252;49033;-67
2023/05/02 01:44:20;;;;;;;;;17.00;14.00;22.50;38.60;;;;;;109897;1254;46604;-67
2023/05/02 01:46:47;;;;;;;;;15.00;13.00;22.50;38.40;;;;;;109905;1256;57476;-66
2023/05/02 01:49:15;;;;;;;;;17.00;14.00;22.50;38.40;;;;;;109980;1252;53425;-65
2023/05/02 01:51:47;;;;;;;;;14.00;13.00;22.40;38.20;;;;;;109858;1252;49868;-67
2023/05/02 01:54:15;;;;;;;;;15.67;14.00;22.40;38.30;;;;;;109974;1255;49596;-66
2023/05/02 01:56:44;;;;;;;;;15.00;13.50;22.40;38.30;;;;;;110023;1252;46661;-67
2023/05/02 01:59:17;;;;;;;;;16.00;13.00;22.40;38.30;;;;;;110056;1257;57448;-67
2023/05/02 02:01:45;;;;;;;;;18.00;17.00;22.40;38.30;;;;;;109975;1254;53408;-68
2023/05/02 02:04:14;;;;;;;;;16.50;14.50;22.40;38.50;;;;;;109884;1253;49961;-65
2023/05/02 02:06:45;;;;;;;;;15.00;14.00;22.40;38.20;;;;;;109921;1255;49972;-66
2023/05/02 02:09:13;;;;;;;;;14.00;12.00;22.40;37.80;;;;;;110026;1254;46482;-65
2023/05/02 02:11:46;;;;;;;;;15.00;13.25;22.40;38.50;;;;;;109987;1252;56595;-67
2023/05/02 02:14:25;;;;;;;;;15.00;14.00;22.40;38.30;;;;;;109972;1257;54426;-65
2023/05/02 02:16:55;;;;;;;;;13.50;11.50;22.40;38.30;;;;;;110017;1257;50379;-67
2023/05/02 02:19:23;;;;;;;;;16.00;14.00;22.30;38.20;;;;;;110045;1256;49622;-68
2023/05/02 02:21:50;;;;;;;;;15.00;14.00;22.40;38.30;;;;;;109899;1256;46030;-69
2023/05/02 02:24:20;;;;;;;;;17.00;15.00;22.40;38.30;;;;;;110213;1254;56844;-66
2023/05/02 02:26:46;;;;;;;;;15.50;13.00;22.30;38.20;;;;;;109753;1255;54675;-67
2023/05/02 02:29:13;;;;;;;;;18.00;16.00;22.30;38.20;;;;;;110033;1255;50554;-68
2023/05/02 02:31:41;;;;;;;;;16.00;14.00;22.30;38.10;;;;;;110122;1252;49795;-68
2023/05/02 02:34:08;;;;;;;;;14.50;12.00;22.30;38.20;;;;;;110228;1252;46328;-67
2023/05/02 02:36:45;;;;;;;;;16.00;15.00;22.30;38.20;;;;;;110283;1257;56480;-67
2023/05/02 02:39:19;;;;;;;;;16.00;13.00;22.30;38.20;;;;;;110059;1252;54307;-64
2023/05/02 02:42:11;;;;;;;;;17.00;15.00;22.30;38.20;;;;;;110044;1252;49500;-64
2023/05/02 02:44:50;;;;;;;;;16.00;14.00;22.30;38.10;;;;;;109965;1257;49025;-64
2023/05/02 02:47:31;;;;;;;;;15.33;14.67;22.30;38.20;;;;;;109985;1256;46900;-64
2023/05/02 02:50:14;;;;;;;;;16.00;14.00;22.20;38.10;;;;;;110001;1256;57030;-65
2023/05/02 02:53:03;;;;;;;;;18.00;16.00;22.20;38.10;;;;;;110018;1256;53930;-63
2023/05/02 02:55:46;;;;;;;;;15.00;13.67;22.20;38.20;;;;;;110003;1254;49877;-63
2023/05/02 02:58:19;;;;;;;;;15.67;14.67;22.20;38.40;;;;;;109923;1252;49323;-65
2023/05/02 03:00:48;;;;;;;;;15.00;14.00;22.20;38.10;;;;;;110028;1254;46792;-64
2023/05/02 03:03:16;;;;;;;;;19.00;16.00;22.20;38.20;;;;;;109996;1254;57644;-65
2023/05/02 03:05:43;;;;;;;;;12.00;11.00;22.20;38.20;;;;;;109952;1253;54226;-64
2023/05/02 03:08:10;;;;;;;;;15.50;13.50;22.10;38.30;;;;;;109937;1252;49317;-66
2023/05/02 03:10:37;;;;;;;;;19.00;18.00;22.10;38.10;;;;;;109944;1258;48784;-63
2023/05/02 03:13:04;;;;;;;;;17.00;13.00;22.10;38.30;;;;;;109944;1255;46433;-64
2023/05/02 03:15:53;;;;;;;;;15.00;14.00;22.10;38.10;;;;;;109988;1252;56220;-62
2023/05/02 03:18:19;;;;;;;;;15.67;13.67;22.10;38.20;;;;;;109959;1256;54420;-64
2023/05/02 03:20:46;;;;;;;;;15.00;14.00;22.00;38.10;;;;;;109962;1252;49748;-62
2023/05/02 03:23:13;;;;;;;;;16.00;13.00;22.10;38.40;;;;;;109908;1257;50226;-62
2023/05/02 03:25:40;;;;;;;;;15.00;14.00;22.10;38.20;;;;;;109940;1254;47184;-62
2023/05/02 03:28:08;;;;;;;;;15.00;14.00;22.00;38.10;;;;;;109927;1257;56246;-63
2023/05/02 03:30:35;;;;;;;;;15.00;14.00;22.00;38.10;;;;;;109951;1252;53551;-65
2023/05/02 03:33:03;;;;;;;;;16.00;15.00;22.00;38.10;;;;;;109945;1253;50057;-64
2023/05/02 03:35:30;;;;;;;;;17.33;16.00;22.00;38.10;;;;;;109868;1254;49356;-63
2023/05/02 03:37:57;;;;;;;;;15.00;14.00;22.00;37.90;;;;;;109987;1252;46933;-63
2023/05/02 03:40:26;;;;;;;;;18.50;15.50;22.00;38.40;;;;;;109991;1252;56069;-63
2023/05/02 03:42:53;;;;;;;;;14.00;13.00;22.00;38.10;;;;;;110003;1256;53423;-65
2023/05/02 03:45:20;;;;;;;;;18.00;15.00;22.00;38.10;;;;;;110447;1252;49918;-63
2023/05/02 03:47:47;;;;;;;;;15.50;12.50;21.90;38.10;;;;;;109955;1256;49896;-65
2023/05/02 03:50:14;;;;;;;;;16.50;15.00;22.00;38.10;;;;;;109972;1252;46320;-63
2023/05/02 03:52:41;;;;;;;;;17.00;15.00;22.00;37.80;;;;;;109974;1256;56506;-64
2023/05/02 03:55:09;;;;;;;;;19.00;15.00;21.90;38.00;;;;;;109845;1254;53983;-64
2023/05/02 03:57:36;;;;;;;;;14.33;13.33;22.00;38.30;;;;;;109916;1257;49609;-65
2023/05/02 04:00:04;;;;;;;;;13.67;12.33;22.00;38.10;;;;;;109954;1252;50169;-66
2023/05/02 04:02:31;;;;;;;;;18.00;16.00;22.00;38.10;;;;;;110057;1252;46082;-67
2023/05/02 04:04:58;;;;;;;;;18.00;14.00;22.00;38.10;;;;;;110358;1257;56578;-65
2023/05/02 04:07:25;;;;;;;;;16.50;13.00;21.90;38.30;;;;;;110033;1252;54349;-66
2023/05/02 04:09:52;;;;;;;;;14.00;12.50;21.90;38.00;;;;;;110043;1252;49803;-66
2023/05/02 04:12:20;;;;;;;;;15.00;13.67;22.00;37.80;;;;;;109943;1257;49640;-65
2023/05/02 04:14:47;;;;;;;;;16.50;15.00;22.00;38.20;;;;;;109894;1254;46905;-65
2023/05/02 04:17:16;;;;;;;;;15.50;13.00;22.00;38.00;;;;;;110072;1252;57681;-66
2023/05/02 04:19:43;;;;;;;;;16.00;14.00;22.00;38.00;;;;;;110042;1252;54423;-65
2023/05/02 04:22:11;;;;;;;;;42.50;31.00;22.00;38.80;;;;;;110012;1253;49407;-68
2023/05/02 04:24:38;;;;;;;;;51.50;34.50;21.90;41.70;;;;;;110382;1252;49231;-67
2023/05/02 04:27:04;;;;;;;;;51.00;36.50;21.90;43.20;;;;;;110004;1257;46625;-66
2023/05/02 04:29:31;;;;;;;;;50.00;35.00;22.00;42.70;;;;;;110031;1258;56335;-66
2023/05/02 04:31:58;;;;;;;;;43.00;31.50;22.10;42.00;;;;;;110044;1252;54530;-67
2023/05/02 04:34:27;;;;;;;;;48.00;33.00;22.20;41.60;;;;;;110295;1254;49778;-68
2023/05/02 04:36:54;;;;;;;;;41.50;31.00;22.10;41.30;;;;;;109931;1256;50146;-69
2023/05/02 04:39:21;;;;;;;;;47.00;36.67;22.10;41.70;;;;;;109897;1256;47510;-70
2023/05/02 04:41:47;;;;;;;;;43.00;35.00;22.20;43.00;;;;;;109933;1257;56527;-68
2023/05/02 04:44:14;;;;;;;;;48.00;32.50;22.20;43.50;;;;;;109784;1257;53788;-68
2023/05/02 04:46:41;;;;;;;;;48.00;35.00;22.30;43.90;;;;;;109763;1252;49681;-70
2023/05/02 04:49:09;;;;;;;;;47.00;33.50;22.40;43.70;;;;;;109903;1256;50190;-68
2023/05/02 04:51:36;;;;;;;;;47.50;34.00;22.50;43.70;;;;;;108985;1252;1235908;-68
2023/05/02 04:54:03;;;;;;;;;48.67;35.67;22.60;43.90;;;;;;109910;1255;56597;-69
2023/05/02 04:56:29;;;;;;;;;46.50;33.00;22.60;43.50;;;;;;109918;1256;54190;-68
2023/05/02 04:58:56;;;;;;;;;39.00;30.67;22.70;43.70;;;;;;109947;1252;49737;-68
2023/05/02 05:01:26;;;;;;;;;40.00;30.50;22.70;43.50;;;;;;109938;1257;49156;-68
2023/05/02 05:03:54;;;;;;;;;42.50;33.50;22.80;43.30;;;;;;109876;1257;47437;-68
2023/05/02 05:06:21;;;;;;;;;47.00;32.00;22.80;43.20;;;;;;109960;1252;56182;-68
2023/05/02 05:08:48;;;;;;;;;41.00;29.00;22.80;43.30;;;;;;109947;1257;54584;-68
2023/05/02 05:11:15;;;;;;;;;45.00;31.00;22.90;43.00;;;;;;109866;1257;49177;-68
2023/05/02 05:13:42;;;;;;;;;44.00;32.33;22.90;42.90;;;;;;109884;1252;49545;-67
2023/05/02 05:16:09;;;;;;;;;34.50;29.50;22.90;42.80;;;;;;109935;1252;46799;-68
2023/05/02 05:18:39;;;;;;;;;37.00;31.50;23.00;42.80;;;;;;109913;1257;57065;-68
2023/05/02 05:21:07;;;;;;;;;36.00;28.00;23.00;42.70;;;;;;109945;1257;54024;-68
2023/05/02 05:23:35;;;;;;;;;38.25;31.75;23.10;42.70;;;;;;109955;1255;49288;-68
2023/05/02 05:26:16;;;;;;;;;36.00;30.00;23.10;42.80;;;;;;110004;1256;49507;-69
2023/05/02 05:28:43;;;;;;;;;41.50;30.00;23.10;42.50;;;;;;109913;1252;45969;-69
2023/05/02 05:31:12;;;;;;;;;36.00;30.25;23.20;42.40;;;;;;109947;1254;56998;-69
2023/05/02 05:33:39;;;;;;;;;38.50;31.00;23.20;42.30;;;;;;110040;1255;53731;-69
2023/05/02 05:36:13;;;;;;;;;34.00;29.00;23.20;42.20;;;;;;109998;1257;48996;-66
2023/05/02 05:38:40;;;;;;;;;32.50;26.00;23.30;42.60;;;;;;110038;1252;50409;-66
2023/05/02 05:41:07;;;;;;;;;33.50;29.50;23.30;42.60;;;;;;109898;1256;46804;-66
2023/05/02 05:43:35;;;;;;;;;31.00;28.00;23.40;42.30;;;;;;109950;1258;56974;-65
2023/05/02 05:46:02;;;;;;;;;32.50;26.50;23.40;42.10;;;;;;110014;1252;54180;-66
2023/05/02 05:48:28;;;;;;;;;38.67;30.00;23.40;42.00;;;;;;109920;1255;50282;-65
2023/05/02 05:50:55;;;;;;;;;30.00;27.50;23.50;42.00;;;;;;109905;1255;49787;-66
2023/05/02 05:53:22;;;;;;;;;29.50;26.50;23.50;42.50;;;;;;110014;1257;46694;-65
2023/05/02 05:55:49;;;;;;;;;35.00;26.50;23.60;42.00;;;;;;109953;1254;56812;-66
2023/05/02 05:58:16;;;;;;;;;33.00;29.00;23.60;41.90;;;;;;109900;1252;53800;-66
2023/05/02 06:00:43;;;;;;;;;30.00;28.00;23.60;42.50;;;;;;109933;1258;49504;-66
2023/05/02 06:03:10;;;;;;;;;35.00;27.00;23.70;42.70;;;;;;110199;1252;49540;-70
2023/05/02 06:05:37;;;;;;;;;34.50;27.50;23.70;42.60;;;;;;110438;1257;46386;-70
2023/05/02 06:08:04;;;;;;;;;33.00;29.00;23.80;42.60;;;;;;110085;1257;56087;-72
2023/05/02 06:10:31;;;;;;;;;26.00;23.50;23.90;42.30;;;;;;109998;1253;55334;-71
2023/05/02 06:12:58;;;;;;;;;30.00;27.00;23.90;42.40;;;;;;109989;1252;50311;-69
2023/05/02 06:15:25;;;;;;;;;29.00;26.00;24.00;42.30;;;;;;110017;1255;49060;-68
2023/05/02 06:17:52;;;;;;;;;30.50;27.00;24.00;42.30;;;;;;110052;1252;46203;-70
2023/05/02 06:20:20;;;;;;;;;35.50;26.50;24.10;42.30;;;;;;110017;1252;57013;-67
2023/05/02 06:22:47;;;;;;;;;30.00;26.00;24.20;42.30;;;;;;110037;1255;53436;-67
2023/05/02 06:25:14;;;;;;;;;30.00;27.00;24.20;42.20;;;;;;110097;1253;52008;-68
2023/05/02 06:27:41;;;;;;;;;39.00;29.67;24.30;42.50;;;;;;110231;1254;49559;-71
2023/05/02 06:30:09;;;;;;;;;30.33;26.67;24.40;42.20;;;;;;110270;1252;46902;-71
2023/05/02 06:32:35;;;;;;;;;33.00;29.00;24.40;42.20;;;;;;110238;1255;57038;-69
2023/05/02 06:35:03;;;;;;;;;31.50;29.00;24.50;42.00;;;;;;110243;1252;53358;-68
2023/05/02 06:37:37;;;;;;;;;26.67;24.00;24.60;42.50;;;;;;110092;1253;49304;-64
2023/05/02 06:40:04;;;;;;;;;29.00;24.00;24.60;41.90;;;;;;110164;1252;49743;-68
2023/05/02 06:42:31;;;;;;;;;28.50;26.00;24.70;42.20;;;;;;109955;1252;47101;-70
2023/05/02 06:44:58;;;;;;;;;28.33;22.67;24.80;41.80;;;;;;110114;1252;56731;-68
2023/05/02 06:47:25;;;;;;;;;29.00;26.00;24.90;41.70;;;;;;110002;1258;54167;-67
2023/05/02 06:49:52;;;;;;;;;28.33;26.33;24.90;41.40;;;;;;110068;1252;49852;-68
2023/05/02 06:52:19;;;;;;;;;29.50;27.00;25.00;41.40;;;;;;110023;1256;49403;-67
2023/05/02 06:54:46;;;;;;;;;29.50;24.50;25.00;41.00;;;;;;110082;1252;46795;-70
2023/05/02 06:57:13;;;;;;;;;30.00;28.00;25.00;41.20;;;;;;110042;1252;56112;-67
2023/05/02 06:59:40;;;;;;;;;29.00;26.00;25.10;41.30;;;;;;109938;1252;53723;-72
2023/05/02 07:02:07;;;;;;;;;30.33;26.33;25.20;41.30;;;;;;110024;1256;48863;-67
2023/05/02 07:04:34;;;;;;;;;30.00;26.00;25.20;41.00;;;;;;110072;1257;49928;-73
2023/05/02 07:07:02;;;;;;;;;26.00;25.00;25.20;40.70;;;;;;110006;1257;46715;-67
2023/05/02 07:09:29;;;;;;;;;26.00;23.67;25.30;40.90;;;;;;109988;1252;57167;-68
2023/05/02 07:11:56;;;;;;;;;26.00;23.00;25.30;40.80;;;;;;109980;1257;54580;-70
2023/05/02 07:14:23;;;;;;;;;25.00;22.50;25.40;40.50;;;;;;110093;1254;49974;-66
2023/05/02 07:16:50;;;;;;;;;26.25;23.00;25.40;40.40;;;;;;110017;1257;50610;-67
2023/05/02 07:19:18;;;;;;;;;29.00;23.50;25.40;40.50;;;;;;109975;1254;45961;-71
2023/05/02 07:21:45;;;;;;;;;26.00;22.00;25.40;40.70;;;;;;110104;1252;57145;-71
2023/05/02 07:24:12;;;;;;;;;25.00;23.00;25.40;40.40;;;;;;110170;1257;54075;-66
2023/05/02 07:26:39;;;;;;;;;24.00;23.00;25.40;40.40;;;;;;110168;1257;49058;-66
2023/05/02 07:29:06;;;;;;;;;28.00;20.00;25.50;40.20;;;;;;109911;1253;49826;-68
2023/05/02 07:31:32;;;;;;;;;30.00;24.00;25.50;40.20;;;;;;110016;1258;46344;-69
2023/05/02 07:34:00;;;;;;;;;25.00;21.00;25.60;40.40;;;;;;110043;1257;56645;-67
2023/05/02 07:36:27;;;;;;;;;28.50;27.00;25.60;40.40;;;;;;110010;1256;55202;-68
2023/05/02 07:38:53;;;;;;;;;28.00;25.67;25.60;40.20;;;;;;110013;1256;50156;-68
2023/05/02 07:41:20;;;;;;;;;28.00;22.00;25.60;40.00;;;;;;110039;1257;49476;-68
2023/05/02 07:43:48;;;;;;;;;26.00;22.00;25.70;40.10;;;;;;109928;1254;47613;-67
2023/05/02 07:46:15;;;;;;;;;24.00;23.00;25.70;39.50;;;;;;110119;1252;57337;-71
2023/05/02 07:48:42;;;;;;;;;24.50;22.00;25.70;39.80;;;;;;109968;1254;54070;-69
2023/05/02 07:51:10;;;;;;;;;23.00;20.00;25.70;39.30;;;;;;109943;1257;49899;-69
2023/05/02 07:53:37;;;;;;;;;27.00;23.00;25.80;39.30;;;;;;109939;1256;50632;-69
2023/05/02 07:56:08;;;;;;;;;22.50;21.50;25.80;39.40;;;;;;109935;1255;46250;-70
2023/05/02 07:58:38;;;;;;;;;25.00;22.00;25.80;39.20;;;;;;109928;1252;56854;-70
2023/05/02 08:01:05;;;;;;;;;24.00;21.00;25.80;39.20;;;;;;109918;1253;54160;-72
2023/05/02 08:03:32;;;;;;;;;20.00;19.00;25.90;39.10;;;;;;110038;1257;49950;-67
2023/05/02 08:06:00;;;;;;;;;21.50;17.00;25.90;39.30;;;;;;109899;1254;49730;-66
2023/05/02 08:08:27;;;;;;;;;31.00;20.00;25.90;39.20;;;;;;110007;1256;46241;-66
2023/05/02 08:10:54;;;;;;;;;28.00;23.67;26.00;39.50;;;;;;109999;1252;56324;-67
2023/05/02 08:13:21;;;;;;;;;22.00;20.00;26.00;39.40;;;;;;110056;1252;54755;-68
2023/05/02 08:15:48;;;;;;;;;22.00;19.00;26.00;39.20;;;;;;109982;1252;50335;-67
2023/05/02 08:18:15;;;;;;;;;21.00;20.00;26.10;39.20;;;;;;109946;1252;49701;-70
2023/05/02 08:20:42;;;;;;;;;26.33;21.00;26.10;39.10;;;;;;110027;1252;46569;-71
2023/05/02 08:23:09;;;;;;;;;25.33;19.67;26.10;38.80;;;;;;109983;1251;57865;-67
2023/05/02 08:25:36;;;;;;;;;22.00;20.00;26.10;38.90;;;;;;109956;1252;55477;-68
2023/05/02 08:28:03;;;;;;;;;24.00;19.75;26.20;38.90;;;;;;109993;1255;50297;-68
2023/05/02 08:30:30;;;;;;;;;26.00;21.00;26.20;39.20;;;;;;110014;1256;49847;-69
2023/05/02 08:32:57;;;;;;;;;23.50;21.00;26.20;38.70;;;;;;110063;1256;48043;-67
2023/05/02 08:35:24;;;;;;;;;26.00;21.00;26.20;38.70;;;;;;109915;1257;56140;-68
2023/05/02 08:37:51;;;;;;;;;22.50;21.50;26.20;38.60;;;;;;109973;1256;53516;-65
2023/05/02 08:40:19;;;;;;;;;21.00;18.00;26.30;38.80;;;;;;109947;1256;49541;-71
2023/05/02 08:42:47;;;;;;;;;17.50;16.00;26.30;38.80;;;;;;109958;1257;50530;-75
2023/05/02 08:45:14;;;;;;;;;18.00;17.00;26.30;38.40;;;;;;110368;1252;46504;-74
2023/05/02 08:47:41;;;;;;;;;23.33;20.67;26.40;38.20;;;;;;109917;1252;57476;-74
2023/05/02 08:50:10;;;;;;;;;22.00;21.00;26.40;38.20;;;;;;110009;1252;54228;-75
2023/05/02 08:52:37;;;;;;;;;23.50;22.50;26.50;38.40;;;;;;110019;1255;49761;-76
2023/05/02 08:55:06;;;;;;;;;28.50;23.50;26.50;37.90;;;;;;110176;1252;50113;-72
2023/05/02 08:57:33;;;;;;;;;21.67;20.67;26.60;37.60;;;;;;110067;1252;46576;-74
2023/05/02 09:00:00;;;;;;;;;22.00;19.50;26.60;36.40;;;;;;109966;1257;57321;-73
2023/05/02 09:02:59;;;;;;;;;19.00;18.00;26.50;34.90;;;;;;109850;1258;54578;-71
2023/05/02 09:05:27;;;;;;;;;21.00;18.00;26.50;34.80;;;;;;109870;1252;49006;-71
2023/05/02 09:07:54;;;;;;;;;19.00;18.00;26.50;34.50;;;;;;109966;1255;49055;-70
2023/05/02 09:10:25;;;;;;;;;18.00;17.00;26.50;34.20;;;;;;109996;1252;46615;-71
2023/05/02 09:12:51;;;;;;;;;20.00;17.50;26.50;34.40;;;;;;109840;1253;57088;-70
2023/05/02 09:15:19;;;;;;;;;18.50;17.00;26.40;34.10;;;;;;109967;1254;54237;-69
2023/05/02 09:17:47;;;;;;;;;16.00;15.00;26.30;34.20;;;;;;109969;1252;50405;-69
2023/05/02 09:20:15;;;;;;;;;20.50;17.50;26.30;33.90;;;;;;109895;1252;49817;-71
2023/05/02 09:22:50;;;;;;;;;20.50;16.50;26.20;33.80;;;;;;109947;1251;46964;-70
2023/05/02 09:25:19;;;;;;;;;18.00;16.50;26.10;33.80;;;;;;110019;1257;56860;-70
2023/05/02 09:27:54;;;;;;;;;18.00;17.00;26.10;34.20;;;;;;109970;1252;53841;-70
2023/05/02 09:30:25;;;;;;;;;23.00;18.00;26.00;32.80;;;;;;109937;1257;49304;-70
2023/05/02 09:32:55;;;;;;;;;18.00;16.50;25.90;33.70;;;;;;109969;1255;49000;-69
2023/05/02 09:35:23;;;;;;;;;21.00;19.00;25.90;34.10;;;;;;109767;1257;46533;-72
2023/05/02 09:37:50;;;;;;;;;;;25.90;34.50;;;;;;110143;1252;56416;-70
2023/05/02 09:40:18;;;;;;;;;19.00;17.00;26.00;35.20;;;;;;110089;1257;53975;-70
2023/05/02 09:42:45;;;;;;;;;19.50;17.00;26.00;34.70;;;;;;110084;1257;49422;-72
2023/05/02 09:45:23;;;;;;;;;22.00;20.00;26.10;34.80;;;;;;110412;1256;49439;-72
2023/05/02 09:47:51;;;;;;;;;18.00;16.00;26.10;34.70;;;;;;110064;1255;46220;-72
2023/05/02 09:50:32;;;;;;;;;17.00;16.50;26.20;34.40;;;;;;110113;1256;56677;-70
2023/05/02 09:53:01;;;;;;;;;19.00;17.00;26.20;34.50;;;;;;110149;1252;54707;-70
2023/05/02 09:55:28;;;;;;;;;14.67;13.33;26.20;34.50;;;;;;110498;1256;50013;-70
2023/05/02 09:57:55;;;;;;;;;19.00;18.00;26.20;34.60;;;;;;110025;1256;49267;-70
2023/05/02 10:00:37;;;;;;;;;19.00;16.00;26.30;35.00;;;;;;109975;1256;46134;-70
2023/05/02 10:03:06;;;;;;;;;19.00;18.00;26.30;35.00;;;;;;110011;1252;57683;-76
2023/05/02 10:05:37;;;;;;;;;19.00;17.00;26.30;35.30;;;;;;110408;1252;53867;-72
2023/05/02 10:08:08;;;;;;;;;23.00;19.00;26.30;35.50;;;;;;110081;1252;49413;-74
2023/05/02 10:10:40;;;;;;;;;17.00;16.00;26.40;35.50;;;;;;110023;1257;49959;-71
2023/05/02 10:13:08;;;;;;;;;19.50;18.50;26.40;34.80;;;;;;109964;1257;46774;-70
2023/05/02 10:15:41;;;;;;;;;17.50;16.50;26.40;34.60;;;;;;110026;1254;56139;-72
2023/05/02 10:18:13;;;;;;;;;16.33;15.00;26.40;34.50;;;;;;110004;1252;53902;-71
2023/05/02 10:20:50;;;;;;;;;16.00;15.00;26.40;34.50;;;;;;110097;1252;49347;-72
2023/05/02 10:23:17;;;;;;;;;17.00;16.00;26.30;33.90;;;;;;109837;1252;49391;-70
2023/05/02 10:25:45;;;;;;;;;17.00;16.00;26.30;34.10;;;;;;110177;1252;46747;-70
2023/05/02 10:28:12;;;;;;;;;22.00;19.00;26.20;34.50;;;;;;110105;1257;56652;-72
2023/05/02 10:30:40;;;;;;;;;17.00;16.00;26.20;35.00;;;;;;109992;1255;53987;-68
2023/05/02 10:33:07;;;;;;;;;20.00;16.50;26.20;35.00;;;;;;109963;1254;49099;-76
2023/05/02 10:35:36;;;;;;;;;17.50;16.00;26.20;35.00;;;;;;110050;1257;49266;-70
2023/05/02 10:38:05;;;;;;;;;20.00;16.00;26.20;34.70;;;;;;110011;1254;47329;-72
2023/05/02 10:40:32;;;;;;;;;15.33;14.00;26.30;34.30;;;;;;109995;1252;56434;-76
2023/05/02 10:42:59;;;;;;;;;20.50;17.00;26.30;33.70;;;;;;110099;1252;53681;-80
2023/05/02 10:45:30;;;;;;;;;16.00;13.00;26.30;33.20;;;;;;110379;1252;49523;-79
2023/05/02 10:48:18;;;;;;;;;15.00;12.00;26.40;33.20;;;;;;110000;1256;50447;-71
2023/05/02 10:51:00;;;;;;;;;15.50;14.50;26.40;33.10;;;;;;110079;1257;46431;-68
2023/05/02 10:53:32;;;;;;;;;21.00;18.00;26.40;32.80;;;;;;109866;1255;56498;-65
2023/05/02 10:56:21;;;;;;;;;15.00;14.50;26.40;32.40;;;;;;110459;1256;53301;-71
2023/05/02 10:58:49;;;;;;;;;17.00;15.00;26.50;32.50;;;;;;110093;1252;49919;-69
2023/05/02 11:01:35;;;;;;;;;17.50;17.00;26.50;32.20;;;;;;110025;1254;49181;-66
2023/05/02 11:04:05;;;;;;;;;15.00;13.50;26.50;31.20;;;;;;110110;1256;46186;-68
2023/05/02 11:06:56;;;;;;;;;14.00;13.00;26.50;31.50;;;;;;110371;1252;57960;-70
2023/05/02 11:09:23;;;;;;;;;15.50;13.00;26.50;31.10;;;;;;110320;1257;53985;-77
2023/05/02 11:11:53;;;;;;;;;17.00;15.00;26.50;31.10;;;;;;110028;1252;49620;-76
2023/05/02 11:14:29;;;;;;;;;15.00;14.00;26.60;31.00;;;;;;110313;1257;50094;-71
2023/05/02 11:16:59;;;;;;;;;15.00;13.00;26.50;31.10;;;;;;109976;1252;46877;-70
2023/05/02 11:19:27;;;;;;;;;15.00;14.00;26.50;31.80;;;;;;110016;1257;56818;-73
2023/05/02 11:22:16;;;;;;;;;16.00;15.00;26.50;32.00;;;;;;110112;1252;54203;-69
2023/05/02 11:24:46;;;;;;;;;19.00;17.50;26.50;32.20;;;;;;110007;1253;49946;-68
2023/05/02 11:27:28;;;;;;;;;15.00;14.00;26.40;32.20;;;;;;109995;1255;49380;-69
2023/05/02 11:29:59;;;;;;;;;19.25;16.75;26.40;32.40;;;;;;110135;1256;46992;-67
2023/05/02 11:32:44;;;;;;;;;14.00;13.00;26.50;32.00;;;;;;109965;1257;57297;-67
2023/05/02 11:35:25;;;;;;;;;17.00;15.50;26.50;32.30;;;;;;110034;1256;54167;-64
2023/05/02 11:37:56;;;;;;;;;17.75;16.75;26.50;32.40;;;;;;109987;1252;49725;-66
2023/05/02 11:40:24;;;;;;;;;17.00;14.00;26.50;31.50;;;;;;109987;1256;50194;-66
2023/05/02 11:42:52;;;;;;;;;19.00;16.00;26.50;30.90;;;;;;109931;1254;46037;-64
2023/05/02 11:45:20;;;;;;;;;15.50;13.00;26.50;31.00;;;;;;110071;1252;56681;-71
2023/05/02 11:47:47;;;;;;;;;15.00;14.00;26.50;32.10;;;;;;109961;1252;54791;-70
2023/05/02 11:50:15;;;;;;;;;15.00;12.75;26.50;32.00;;;;;;110046;1254;50015;-71
2023/05/02 11:52:43;;;;;;;;;15.00;14.00;26.50;32.40;;;;;;109872;1252;50023;-71
2023/05/02 11:55:11;;;;;;;;;17.33;15.33;26.50;32.50;;;;;;109920;1252;46507;-69
2023/05/02 11:57:39;;;;;;;;;19.00;15.00;26.50;32.10;;;;;;110488;1252;56809;-70
2023/05/02 12:00:06;;;;;;;;;13.67;13.00;26.60;32.30;;;;;;109947;1252;54368;-69
2023/05/02 12:02:41;;;;;;;;;20.67;14.67;26.60;31.70;;;;;;110011;1252;49174;-65
2023/05/02 12:05:12;;;;;;;;;16.00;13.00;26.60;31.10;;;;;;110040;1252;50116;-72
2023/05/02 12:07:44;;;;;;;;;17.00;16.00;26.50;31.70;;;;;;110041;1252;46527;-73
2023/05/02 12:10:13;;;;;;;;;13.50;12.50;26.50;32.20;;;;;;110019;1254;56380;-68
2023/05/02 12:12:43;;;;;;;;;21.00;16.50;26.50;32.40;;;;;;110059;1256;53602;-69
2023/05/02 12:15:11;;;;;;;;;16.00;14.00;26.50;32.40;;;;;;110028;1252;50377;-69
2023/05/02 12:17:45;;;;;;;;;16.50;15.50;26.60;32.10;;;;;;110040;1253;49884;-70
2023/05/02 12:20:12;;;;;;;;;15.00;14.00;26.60;31.90;;;;;;109953;1256;46245;-70
2023/05/02 12:22:39;;;;;;;;;16.00;15.00;26.60;31.40;;;;;;110128;1254;56732;-69
2023/05/02 12:25:07;;;;;;;;;13.50;12.00;26.50;31.80;;;;;;110179;1252;55007;-71
2023/05/02 12:27:34;;;;;;;;;15.50;14.50;26.50;32.30;;;;;;110100;1257;49460;-70
2023/05/02 12:30:02;;;;;;;;;17.00;15.00;26.60;32.00;;;;;;110102;1252;49664;-67